Pagrindinis puslapis
METAR-TAF:

METAR-TAF

Oro uostai :

Vilhena, Rondônia, Brazilija

platuma: 12-42S, ilguma: 060-06W, Aukštis: 612 m

Dabartinis oras

Ataskaita buvo paskelbta 1 valandą ir 5 minutes, ne 21:00 UTC
Vėjas 7 kt iš Pietvakarių
Temperatūra 28°C
Drėgmė 62%
Slėgis 1011 hPa
Matomumas: 5000 m
Mažai debesys ne aukštis 4000 ft
Mažai debesys ne aukštis 5000 ft, aukštai iškilę kamuoliniai debesys.
migla

METAR: SBVH 162100Z 22007KT 5000 HZ FEW040 FEW050TCU 28/20 Q1011

Laikas: 18:05 (22:05 UTC)

Prognozė

Ataskaita buvo paskelbta 5 valandos ir 35 minutes, ne 16:30 UTC
Prognozė galioja nuo 16 metu 18 UTC su 17 metu 06 UTC
Vėjas 10 kt iš Šiaurės Vakarų
Matomumas: 8000 m
Tapsmas
nuo 16 metu 20 UTC su 16 metu 22 UTC
Vėjas 5 kt iš Vakarų

TAF: SBVH 161630Z 1618/1706 32010KT 8000 NSC TX36/1618Z TN29/1623Z BECMG 1620/1622 28005KT RMK PGB

Orai ataskaitas ir orų prognozės (METAR, TAF).

turimą stotys yra geltonos ir raudonos taškus žemėlapyje.

Perkelti pele per norėdami pamatyti stoties vardą.

Tada spustelėkite, norėdami matyti oro stebėjimo ir prognozės.

Norėdami pakeisti žemėlapį: spustelėkite ant žalios mygtukų su juodo kryžiaus žemyn,; žalią mygtuką su brūkšneliu, jei norite nutolinti; arba žalių rodyklių gretimoms žemėlapius.


METAR-TAF: